Time;durP1;ratioP1;P1;durP2;ratioP2;P2;SDS_P1;SDS_P2;PMS_P1;PMS_P2;Temp;Humidity;BMP_temperature;BMP_pressure;BME280_temperature;BME280_humidity;BME280_pressure;Samples;Min_cycle;Max_cycle;Signal;HPM_P1;HPM_P2
2024/04/16 00:00:07;;;;;;;;;;;25.80;38.20;;;;;;5417562;26;19929;-63
2024/04/16 00:02:34;;;;;;;;;;;25.80;38.20;;;;;;5417883;26;19929;-63
2024/04/16 00:05:01;;;;;;;;;;;25.80;38.20;;;;;;5417740;26;19929;-62
2024/04/16 00:07:28;;;;;;;;;;;25.70;38.20;;;;;;5417671;26;19929;-62
2024/04/16 00:09:55;;;;;;;;;;;25.80;38.20;;;;;;5417872;26;19940;-62
2024/04/16 00:12:22;;;;;;;;;;;25.80;38.30;;;;;;5417501;26;20452;-63
2024/04/16 00:14:49;;;;;;;;;;;25.70;38.30;;;;;;5417599;26;20417;-62
2024/04/16 00:17:17;;;;;;;;;;;25.70;38.30;;;;;;5417557;26;20269;-62
2024/04/16 00:19:44;;;;;;;;;;;25.70;38.40;;;;;;5417667;26;19980;-63
2024/04/16 00:22:11;;;;;;;;;;;25.70;38.40;;;;;;5416942;26;19936;-62
2024/04/16 00:24:39;;;;;;;;;;;25.70;38.40;;;;;;5417360;26;20374;-62
2024/04/16 00:27:05;;;;;;;;;;;25.70;38.50;;;;;;5417498;26;19932;-62
2024/04/16 00:29:32;;;;;;;;;;;25.70;38.50;;;;;;5417334;26;19933;-62
2024/04/16 00:31:59;;;;;;;;;;;25.70;38.50;;;;;;5417249;26;19957;-62
2024/04/16 00:34:26;;;;;;;;;;;25.60;38.50;;;;;;5416718;26;20054;-62
2024/04/16 00:36:53;;;;;;;;;;;25.60;39.10;;;;;;5417226;26;20023;-62
2024/04/16 00:39:20;;;;;;;;;;;25.60;38.50;;;;;;5417206;26;19957;-62
2024/04/16 00:41:47;;;;;;;;;;;25.60;38.50;;;;;;5417134;26;19929;-62
2024/04/16 00:44:15;;;;;;;;;;;25.60;38.50;;;;;;5417068;26;19929;-62
2024/04/16 00:46:41;;;;;;;;;;;25.60;38.50;;;;;;5417048;26;19929;-63
2024/04/16 00:49:11;;;;;;;;;;;25.60;38.50;;;;;;5420023;26;19935;-63
2024/04/16 00:51:39;;;;;;;;;;;25.60;38.50;;;;;;5418925;26;20370;-62
2024/04/16 00:54:07;;;;;;;;;;;25.60;38.50;;;;;;5420547;26;19936;-63
2024/04/16 00:56:35;;;;;;;;;;;25.60;38.50;;;;;;5420182;26;19936;-62
2024/04/16 00:59:02;;;;;;;;;;;25.60;38.50;;;;;;5420491;26;20393;-62
2024/04/16 01:01:29;;;;;;;;;;;25.60;38.50;;;;;;5420284;26;20406;-62
2024/04/16 01:03:59;;;;;;;;;;;25.60;38.50;;;;;;5420199;26;19998;-62
2024/04/16 01:06:27;;;;;;;;;;;25.60;38.50;;;;;;5420093;26;19983;-62
2024/04/16 01:08:54;;;;;;;;;;;25.60;38.50;;;;;;5418653;26;19929;-62
2024/04/16 01:11:21;;;;;;;;;;;25.60;38.50;;;;;;5420349;26;20328;-62
2024/04/16 01:13:48;;;;;;;;;;;25.60;38.50;;;;;;5418591;26;19929;-62
2024/04/16 01:16:15;;;;;;;;;;;25.60;38.50;;;;;;5420419;26;19929;-62
2024/04/16 01:18:43;;;;;;;;;;;25.60;38.60;;;;;;5419799;26;19929;-62
2024/04/16 01:21:10;;;;;;;;;;;25.60;38.60;;;;;;5420246;26;19929;-63
2024/04/16 01:23:37;;;;;;;;;;;25.60;38.60;;;;;;5419748;26;19936;-62
2024/04/16 01:26:04;;;;;;;;;;;25.60;38.60;;;;;;5418313;26;20444;-62
2024/04/16 01:28:31;;;;;;;;;;;25.60;38.70;;;;;;5420228;26;19936;-62
2024/04/16 01:30:58;;;;;;;;;;;25.60;38.70;;;;;;5419834;26;20358;-62
2024/04/16 01:33:25;;;;;;;;;;;25.50;38.60;;;;;;5420587;26;19933;-63
2024/04/16 01:35:53;;;;;;;;;;;25.50;38.70;;;;;;5420183;26;20255;-62
2024/04/16 01:38:20;;;;;;;;;;;25.50;38.80;;;;;;5420094;26;20259;-63
2024/04/16 01:40:47;;;;;;;;;;;25.50;38.80;;;;;;5419384;26;20385;-62
2024/04/16 01:43:14;;;;;;;;;;;25.50;38.90;;;;;;5419904;26;20258;-63
2024/04/16 01:45:41;;;;;;;;;;;25.50;38.90;;;;;;5419883;26;19998;-62
2024/04/16 01:48:08;;;;;;;;;;;25.40;38.80;;;;;;5419764;26;20378;-62
2024/04/16 01:50:35;;;;;;;;;;;25.50;38.90;;;;;;5419726;26;19929;-62
2024/04/16 01:53:03;;;;;;;;;;;25.50;38.90;;;;;;5419999;26;20255;-62
2024/04/16 01:55:29;;;;;;;;;;;25.40;38.80;;;;;;5419192;26;19937;-62
2024/04/16 01:57:57;;;;;;;;;;;25.40;38.80;;;;;;5419175;26;19936;-62
2024/04/16 02:00:24;;;;;;;;;;;25.50;38.90;;;;;;5418859;26;19945;-63
2024/04/16 02:02:51;;;;;;;;;;;25.50;38.80;;;;;;5419353;26;19937;-62
2024/04/16 02:05:18;;;;;;;;;;;25.50;38.80;;;;;;5419583;26;19936;-63
2024/04/16 02:07:45;;;;;;;;;;;25.50;38.80;;;;;;5419523;26;19929;-62
2024/04/16 02:10:13;;;;;;;;;;;25.50;38.80;;;;;;5419476;26;20375;-62
2024/04/16 02:12:40;;;;;;;;;;;25.50;38.80;;;;;;5419075;26;19929;-62
2024/04/16 02:15:07;;;;;;;;;;;25.50;38.80;;;;;;5419238;26;19940;-62
2024/04/16 02:17:34;;;;;;;;;;;25.50;38.80;;;;;;5419451;26;19936;-62
2024/04/16 02:20:01;;;;;;;;;;;25.50;38.80;;;;;;5419261;26;19939;-62
2024/04/16 02:22:28;;;;;;;;;;;25.50;38.80;;;;;;5417316;26;19940;-63
2024/04/16 02:24:55;;;;;;;;;;;25.50;38.80;;;;;;5418832;26;19999;-62
2024/04/16 02:27:22;;;;;;;;;;;25.50;38.80;;;;;;5419300;26;19929;-63
2024/04/16 02:29:49;;;;;;;;;;;25.50;38.80;;;;;;5418763;26;20400;-62
2024/04/16 02:32:16;;;;;;;;;;;25.50;38.80;;;;;;5419195;26;19929;-62
2024/04/16 02:34:44;;;;;;;;;;;25.50;38.80;;;;;;5441462;26;19932;-63
2024/04/16 02:37:11;;;;;;;;;;;25.50;38.80;;;;;;5454811;26;19937;-62
2024/04/16 02:39:38;;;;;;;;;;;25.50;38.90;;;;;;5455003;26;19997;-62
2024/04/16 02:42:05;;;;;;;;;;;25.40;38.80;;;;;;5455497;26;19928;-62
2024/04/16 02:44:32;;;;;;;;;;;25.40;38.90;;;;;;5454747;26;19929;-63
2024/04/16 02:46:59;;;;;;;;;;;25.40;39.00;;;;;;5452915;26;19936;-62
2024/04/16 02:49:31;;;;;;;;;;;25.40;39.00;;;;;;5454634;26;19928;-62
2024/04/16 02:51:58;;;;;;;;;;;25.40;39.10;;;;;;5454752;26;19928;-62
2024/04/16 02:54:25;;;;;;;;;;;25.40;39.10;;;;;;5454664;26;19964;-63
2024/04/16 02:56:52;;;;;;;;;;;25.40;39.10;;;;;;5454573;26;19974;-62
2024/04/16 02:59:19;;;;;;;;;;;25.40;39.10;;;;;;5454609;26;19936;-62
2024/04/16 03:01:46;;;;;;;;;;;25.40;39.10;;;;;;5454648;26;19929;-62
2024/04/16 03:04:13;;;;;;;;;;;25.40;39.10;;;;;;5454616;26;19928;-62
2024/04/16 03:06:40;;;;;;;;;;;25.40;39.10;;;;;;5454376;26;19997;-62
2024/04/16 03:09:07;;;;;;;;;;;25.40;39.10;;;;;;5454341;26;19928;-62
2024/04/16 03:11:34;;;;;;;;;;;25.40;39.10;;;;;;5453449;26;20442;-63
2024/04/16 03:14:01;;;;;;;;;;;25.40;39.10;;;;;;5454292;26;19928;-62
2024/04/16 03:16:28;;;;;;;;;;;25.40;39.00;;;;;;5454037;26;20399;-63
2024/04/16 03:18:55;;;;;;;;;;;25.40;39.00;;;;;;5453889;26;19951;-62
2024/04/16 03:21:22;;;;;;;;;;;25.40;39.00;;;;;;5454481;26;20266;-62
2024/04/16 03:23:51;;;;;;;;;;;25.40;39.00;;;;;;5454252;26;19933;-63
2024/04/16 03:26:18;;;;;;;;;;;25.40;39.00;;;;;;5449534;26;20265;-62
2024/04/16 03:28:45;;;;;;;;;;;25.40;39.00;;;;;;5453103;26;20378;-63
2024/04/16 03:31:12;;;;;;;;;;;25.40;38.90;;;;;;5454082;26;19972;-62
2024/04/16 03:33:39;;;;;;;;;;;25.40;38.90;;;;;;5454177;26;19961;-62
2024/04/16 03:36:07;;;;;;;;;;;25.40;39.00;;;;;;5453683;26;19929;-62
2024/04/16 03:38:34;;;;;;;;;;;25.40;39.00;;;;;;5453964;26;19936;-62
2024/04/16 03:41:01;;;;;;;;;;;25.40;39.00;;;;;;5453389;26;19940;-62
2024/04/16 03:43:28;;;;;;;;;;;25.40;39.00;;;;;;5452072;26;19929;-62
2024/04/16 03:45:56;;;;;;;;;;;25.40;39.00;;;;;;5453951;26;20362;-62
2024/04/16 03:48:24;;;;;;;;;;;25.40;39.00;;;;;;5452062;26;19936;-62
2024/04/16 03:50:51;;;;;;;;;;;25.40;39.00;;;;;;5453508;26;19956;-62
2024/04/16 03:53:18;;;;;;;;;;;25.40;39.00;;;;;;5451648;26;19929;-62
2024/04/16 03:55:45;;;;;;;;;;;25.40;39.00;;;;;;5453480;26;19932;-62
2024/04/16 03:58:13;;;;;;;;;;;25.40;39.10;;;;;;5451866;26;20401;-62
2024/04/16 04:03:28;;;;;;;;;;;25.40;39.20;;;;;;5453322;26;20370;-62
2024/04/16 04:05:56;;;;;;;;;;;25.40;39.20;;;;;;5453151;26;20006;-62
2024/04/16 04:08:23;;;;;;;;;;;25.30;39.20;;;;;;5453349;26;19935;-62
2024/04/16 04:10:50;;;;;;;;;;;25.30;39.20;;;;;;5453366;26;20377;-62
2024/04/16 04:13:17;;;;;;;;;;;25.30;39.20;;;;;;5452703;26;19928;-62
2024/04/16 04:15:44;;;;;;;;;;;25.40;39.30;;;;;;5453565;26;20328;-62
2024/04/16 04:18:11;;;;;;;;;;;25.40;39.20;;;;;;5453596;26;19954;-62
2024/04/16 04:20:38;;;;;;;;;;;25.30;39.20;;;;;;5453284;26;20366;-63
2024/04/16 04:23:07;;;;;;;;;;;25.30;39.20;;;;;;5452743;26;19928;-62
2024/04/16 04:25:34;;;;;;;;;;;25.40;39.20;;;;;;5453169;26;19929;-62
2024/04/16 04:28:01;;;;;;;;;;;25.40;39.20;;;;;;5453302;26;19929;-62
2024/04/16 04:30:28;;;;;;;;;;;25.40;39.20;;;;;;5452965;26;19936;-62
2024/04/16 04:32:55;;;;;;;;;;;25.40;39.10;;;;;;5453004;26;19935;-62
2024/04/16 04:35:22;;;;;;;;;;;25.40;39.10;;;;;;5452735;26;19928;-62
2024/04/16 04:37:50;;;;;;;;;;;25.40;39.10;;;;;;5453197;26;19928;-62
2024/04/16 04:40:17;;;;;;;;;;;25.40;39.00;;;;;;5451927;26;19928;-62
2024/04/16 04:42:44;;;;;;;;;;;25.50;39.00;;;;;;5452526;26;19941;-62
2024/04/16 04:45:11;;;;;;;;;;;25.50;38.90;;;;;;5419124;26;19929;-62
2024/04/16 04:47:38;;;;;;;;;;;25.50;38.90;;;;;;5417115;26;19976;-62
2024/04/16 04:50:06;;;;;;;;;;;25.50;38.80;;;;;;5416532;26;20349;-62
2024/04/16 04:52:33;;;;;;;;;;;25.60;38.90;;;;;;5428554;26;19997;-62
2024/04/16 04:55:03;;;;;;;;;;;25.60;38.80;;;;;;5451772;26;19974;-62
2024/04/16 04:57:30;;;;;;;;;;;25.60;38.80;;;;;;5451884;26;20270;-62
2024/04/16 04:59:57;;;;;;;;;;;25.60;38.80;;;;;;5451813;26;19939;-62
2024/04/16 05:02:24;;;;;;;;;;;25.60;38.80;;;;;;5449011;26;19928;-62
2024/04/16 05:04:51;;;;;;;;;;;25.60;38.70;;;;;;5450917;26;19935;-62
2024/04/16 05:07:18;;;;;;;;;;;25.60;38.70;;;;;;5449931;26;19996;-62
2024/04/16 05:09:45;;;;;;;;;;;25.60;38.70;;;;;;5451839;26;20398;-63
2024/04/16 05:12:12;;;;;;;;;;;25.70;38.80;;;;;;5450445;26;19928;-63
2024/04/16 05:14:41;;;;;;;;;;;25.60;38.70;;;;;;5448881;26;19929;-63
2024/04/16 05:17:08;;;;;;;;;;;25.60;38.80;;;;;;5457184;26;19954;-60
2024/04/16 05:19:35;;;;;;;;;;;25.60;39.00;;;;;;5437277;26;19933;-59
2024/04/16 05:22:03;;;;;;;;;;;25.60;39.00;;;;;;5442974;26;19929;-59
2024/04/16 05:24:30;;;;;;;;;;;25.60;39.10;;;;;;5439632;26;19937;-59
2024/04/16 05:26:57;;;;;;;;;;;25.60;39.20;;;;;;5448095;26;19937;-59
2024/04/16 05:29:24;;;;;;;;;;;25.50;39.20;;;;;;5441912;26;19954;-59
2024/04/16 05:31:51;;;;;;;;;;;25.50;39.30;;;;;;5434596;26;19941;-59
2024/04/16 05:34:18;;;;;;;;;;;25.40;39.40;;;;;;5438270;26;19928;-60
2024/04/16 05:36:45;;;;;;;;;;;25.30;39.30;;;;;;5448448;26;20046;-59
2024/04/16 05:39:12;;;;;;;;;;;25.20;39.60;;;;;;5444821;26;19929;-59
2024/04/16 05:41:39;;;;;;;;;;;25.10;39.70;;;;;;5441968;26;19928;-60
2024/04/16 05:44:06;;;;;;;;;;;25.00;39.90;;;;;;5438638;26;19932;-59
2024/04/16 05:46:33;;;;;;;;;;;24.90;39.90;;;;;;5433005;26;20373;-61
2024/04/16 05:49:03;;;;;;;;;;;24.90;40.30;;;;;;5440020;26;19929;-59
2024/04/16 05:51:30;;;;;;;;;;;24.80;40.40;;;;;;5435651;26;19955;-60
2024/04/16 05:53:59;;;;;;;;;;;24.90;40.60;;;;;;5438103;26;19928;-60
2024/04/16 05:56:26;;;;;;;;;;;24.90;40.60;;;;;;5435235;26;19997;-60
2024/04/16 05:58:53;;;;;;;;;;;25.00;40.30;;;;;;5439429;26;19951;-60
2024/04/16 06:01:23;;;;;;;;;;;25.10;39.70;;;;;;5441339;26;20382;-60
2024/04/16 06:03:50;;;;;;;;;;;25.00;39.20;;;;;;5446454;26;19998;-59
2024/04/16 06:06:17;;;;;;;;;;;24.90;39.40;;;;;;5449094;26;19928;-59
2024/04/16 06:08:44;;;;;;;;;;;24.80;39.70;;;;;;5456187;26;19935;-59
2024/04/16 06:11:11;;;;;;;;;;;24.70;40.40;;;;;;5443645;26;19936;-60
2024/04/16 06:13:38;;;;;;;;;;;24.70;40.10;;;;;;5435578;26;19929;-59
2024/04/16 06:16:08;;;;;;;;;;;24.70;40.30;;;;;;5438292;26;20189;-60
2024/04/16 06:18:35;;;;;;;;;;;24.70;40.10;;;;;;5438623;26;19956;-59
2024/04/16 06:21:02;;;;;;;;;;;24.70;40.30;;;;;;5433527;26;19937;-59
2024/04/16 06:23:29;;;;;;;;;;;24.70;40.40;;;;;;5431845;26;20470;-59
2024/04/16 06:25:56;;;;;;;;;;;24.70;40.40;;;;;;5460457;26;19994;-59
2024/04/16 06:28:24;;;;;;;;;;;24.80;40.30;;;;;;5443190;26;20358;-59
2024/04/16 06:30:52;;;;;;;;;;;24.80;40.10;;;;;;5440727;26;20007;-60
2024/04/16 06:33:19;;;;;;;;;;;24.80;40.20;;;;;;5439623;26;19929;-59
2024/04/16 06:35:46;;;;;;;;;;;24.90;40.30;;;;;;5434787;26;19929;-59
2024/04/16 06:38:13;;;;;;;;;;;24.90;39.90;;;;;;5437161;26;19941;-59
2024/04/16 06:40:40;;;;;;;;;;;24.90;39.90;;;;;;5440643;26;19932;-62
2024/04/16 06:43:07;;;;;;;;;;;25.00;40.10;;;;;;5435876;26;19936;-60
2024/04/16 06:45:34;;;;;;;;;;;25.00;39.30;;;;;;5436816;26;19998;-59
2024/04/16 06:48:01;;;;;;;;;;;24.90;39.20;;;;;;5426187;26;19928;-61
2024/04/16 06:50:32;;;;;;;;;;;24.80;39.10;;;;;;5433334;26;20671;-59
2024/04/16 06:52:59;;;;;;;;;;;24.70;38.70;;;;;;5435156;26;19957;-62
2024/04/16 06:55:26;;;;;;;;;;;24.50;39.00;;;;;;5431961;26;19936;-61
2024/04/16 06:57:55;;;;;;;;;;;24.50;39.60;;;;;;5436786;26;20278;-60
2024/04/16 07:00:23;;;;;;;;;;;24.50;40.10;;;;;;5435762;26;20499;-64
2024/04/16 07:02:50;;;;;;;;;;;24.60;40.20;;;;;;5435736;26;19937;-63
2024/04/16 07:05:17;;;;;;;;;;;24.70;40.30;;;;;;5433087;26;20254;-63
2024/04/16 07:07:45;;;;;;;;;;;24.80;40.20;;;;;;5434329;26;19940;-64
2024/04/16 07:10:12;;;;;;;;;;;25.00;40.00;;;;;;5428660;26;19940;-64
2024/04/16 07:12:39;;;;;;;;;;;25.10;39.90;;;;;;5436615;26;20266;-64
2024/04/16 07:15:06;;;;;;;;;;;25.10;39.70;;;;;;5402755;26;19956;-66
2024/04/16 07:17:34;;;;;;;;;;;25.30;39.70;;;;;;5432380;26;19932;-65
2024/04/16 07:20:02;;;;;;;;;;;25.30;39.50;;;;;;5432756;26;20390;-63
2024/04/16 07:22:29;;;;;;;;;;;25.40;39.30;;;;;;5428109;26;20325;-62
2024/04/16 07:24:56;;;;;;;;;;;25.50;39.20;;;;;;5432310;26;20298;-62
2024/04/16 07:27:23;;;;;;;;;;;25.50;39.20;;;;;;5433926;26;19940;-61
2024/04/16 07:29:50;;;;;;;;;;;25.50;39.20;;;;;;5430566;26;19940;-63
2024/04/16 07:32:17;;;;;;;;;;;25.60;39.20;;;;;;5433211;26;19935;-63
2024/04/16 07:34:45;;;;;;;;;;;25.60;39.50;;;;;;5429691;26;19950;-63
2024/04/16 07:37:12;;;;;;;;;;;25.70;38.80;;;;;;5432897;26;19937;-63
2024/04/16 07:39:39;;;;;;;;;;;25.70;38.70;;;;;;5438354;26;19929;-63
2024/04/16 07:42:06;;;;;;;;;;;25.70;38.50;;;;;;5436728;26;19936;-62
2024/04/16 07:44:35;;;;;;;;;;;25.70;38.50;;;;;;5432010;26;19935;-62
2024/04/16 07:47:03;;;;;;;;;;;25.70;38.30;;;;;;5431333;26;20034;-63
2024/04/16 07:49:30;;;;;;;;;;;25.70;38.20;;;;;;5403386;26;19961;-62
2024/04/16 07:51:57;;;;;;;;;;;25.70;38.10;;;;;;5427298;26;19940;-62
2024/04/16 07:54:24;;;;;;;;;;;25.80;38.10;;;;;;5436452;26;19936;-62
2024/04/16 07:56:52;;;;;;;;;;;25.80;38.00;;;;;;5432392;26;19940;-63
2024/04/16 07:59:19;;;;;;;;;;;25.80;37.90;;;;;;5429486;26;20355;-62
2024/04/16 08:01:46;;;;;;;;;;;25.90;38.00;;;;;;5425935;26;19960;-62
2024/04/16 08:04:13;;;;;;;;;;;25.90;38.00;;;;;;5437868;26;19986;-63
2024/04/16 08:06:41;;;;;;;;;;;25.90;37.90;;;;;;5434143;26;19937;-60
2024/04/16 08:09:08;;;;;;;;;;;25.90;37.80;;;;;;5438478;26;19928;-61
2024/04/16 08:11:35;;;;;;;;;;;26.00;37.80;;;;;;5435922;26;19929;-62
2024/04/16 08:14:02;;;;;;;;;;;26.00;37.80;;;;;;5434449;26;19940;-63
2024/04/16 08:16:32;;;;;;;;;;;26.10;37.90;;;;;;5432368;26;19935;-62
2024/04/16 08:18:59;;;;;;;;;;;26.10;37.90;;;;;;5431100;26;20484;-61
2024/04/16 08:21:27;;;;;;;;;;;26.10;37.90;;;;;;5432427;26;19928;-62
2024/04/16 08:23:54;;;;;;;;;;;26.10;37.80;;;;;;5427336;26;20431;-62
2024/04/16 08:26:21;;;;;;;;;;;26.10;37.80;;;;;;5435307;26;20300;-63
2024/04/16 08:28:48;;;;;;;;;;;26.10;37.60;;;;;;5430904;26;20005;-60
2024/04/16 08:31:15;;;;;;;;;;;26.10;37.50;;;;;;5428588;26;19935;-64
2024/04/16 08:33:43;;;;;;;;;;;26.10;37.40;;;;;;5433880;26;19928;-60
2024/04/16 08:36:10;;;;;;;;;;;26.10;37.40;;;;;;5431591;26;20310;-61
2024/04/16 08:38:37;;;;;;;;;;;26.10;37.20;;;;;;5435944;26;20373;-62
2024/04/16 08:41:04;;;;;;;;;;;26.10;37.20;;;;;;5435359;26;19993;-61
2024/04/16 08:43:34;;;;;;;;;;;26.00;37.00;;;;;;5427049;26;19947;-62
2024/04/16 08:46:02;;;;;;;;;;;26.00;37.00;;;;;;5432091;26;20365;-61
2024/04/16 08:48:29;;;;;;;;;;;26.00;37.00;;;;;;5433788;26;20610;-61
2024/04/16 08:50:57;;;;;;;;;;;26.10;37.00;;;;;;5425301;26;20002;-59
2024/04/16 08:53:24;;;;;;;;;;;26.10;37.00;;;;;;5469165;26;20435;-62
2024/04/16 08:55:51;;;;;;;;;;;26.20;37.10;;;;;;5433354;26;19928;-62
2024/04/16 08:58:20;;;;;;;;;;;26.20;37.10;;;;;;5432493;26;19936;-62
2024/04/16 09:00:49;;;;;;;;;;;26.10;37.10;;;;;;5434774;26;20350;-61
2024/04/16 09:03:16;;;;;;;;;;;26.20;37.20;;;;;;5439928;26;19936;-60
2024/04/16 09:05:45;;;;;;;;;;;26.20;37.20;;;;;;5438532;26;19935;-61
2024/04/16 09:08:14;;;;;;;;;;;26.20;37.10;;;;;;5436344;26;19935;-61
2024/04/16 09:10:43;;;;;;;;;;;26.30;37.20;;;;;;5435415;26;19936;-61
2024/04/16 09:13:10;;;;;;;;;;;26.30;37.20;;;;;;5433468;26;20263;-61
2024/04/16 09:15:39;;;;;;;;;;;26.30;37.20;;;;;;5431959;26;19944;-62
2024/04/16 09:18:07;;;;;;;;;;;26.30;37.10;;;;;;5438984;26;19950;-62
2024/04/16 09:20:34;;;;;;;;;;;26.20;36.90;;;;;;5431130;26;19929;-61
2024/04/16 09:23:02;;;;;;;;;;;26.20;36.80;;;;;;5432609;26;19998;-61
2024/04/16 09:25:37;;;;;;;;;;;26.20;36.80;;;;;;5432044;26;20025;-62
2024/04/16 09:28:05;;;;;;;;;;;26.20;36.80;;;;;;5424584;26;19940;-62
2024/04/16 09:30:32;;;;;;;;;;;26.20;36.80;;;;;;5432219;26;19929;-62
2024/04/16 09:33:00;;;;;;;;;;;26.20;36.80;;;;;;5431665;26;19964;-62
2024/04/16 09:35:28;;;;;;;;;;;26.10;36.50;;;;;;5438509;26;19936;-62
2024/04/16 09:38:08;;;;;;;;;;;26.10;36.40;;;;;;5428629;26;19965;-63
2024/04/16 09:40:35;;;;;;;;;;;26.10;36.40;;;;;;5431231;26;19928;-62
2024/04/16 09:43:04;;;;;;;;;;;26.10;36.20;;;;;;5435004;26;19937;-62
2024/04/16 09:45:33;;;;;;;;;;;26.10;36.10;;;;;;5434641;26;19929;-63
2024/04/16 09:48:01;;;;;;;;;;;26.10;36.10;;;;;;5423328;26;19935;-62
2024/04/16 09:50:29;;;;;;;;;;;26.10;36.10;;;;;;5433577;26;19929;-62
2024/04/16 09:53:00;;;;;;;;;;;26.10;36.10;;;;;;5432790;26;19928;-62
2024/04/16 09:55:29;;;;;;;;;;;26.00;36.10;;;;;;5434641;26;19936;-63
2024/04/16 09:57:57;;;;;;;;;;;26.00;36.10;;;;;;5433493;26;19943;-61
2024/04/16 10:00:25;;;;;;;;;;;26.00;36.10;;;;;;5435362;26;19929;-62
2024/04/16 10:02:53;;;;;;;;;;;26.00;36.10;;;;;;5443038;26;19952;-61
2024/04/16 10:05:22;;;;;;;;;;;26.10;36.20;;;;;;5440254;26;19936;-61
2024/04/16 10:07:49;;;;;;;;;;;26.10;36.20;;;;;;5406272;26;19964;-62
2024/04/16 10:10:16;;;;;;;;;;;26.10;36.40;;;;;;5431642;26;20278;-62
2024/04/16 10:12:43;;;;;;;;;;;26.10;36.40;;;;;;5439710;26;20324;-62
2024/04/16 10:15:13;;;;;;;;;;;26.10;36.50;;;;;;5440411;26;19929;-62
2024/04/16 10:17:48;;;;;;;;;;;26.10;36.40;;;;;;5431804;26;19964;-62
2024/04/16 10:20:15;;;;;;;;;;;26.10;36.30;;;;;;5441072;26;19946;-62
2024/04/16 10:22:50;;;;;;;;;;;26.10;36.20;;;;;;5440061;26;19928;-62
2024/04/16 10:25:26;;;;;;;;;;;26.00;36.20;;;;;;5436848;26;22016;-62
2024/04/16 10:27:53;;;;;;;;;;;26.00;36.10;;;;;;5434514;26;19940;-63
2024/04/16 10:30:26;;;;;;;;;;;26.00;36.00;;;;;;5436839;26;19944;-62
2024/04/16 10:32:55;;;;;;;;;;;26.00;36.00;;;;;;5441936;26;19936;-62
2024/04/16 10:35:23;;;;;;;;;;;26.00;36.00;;;;;;5402541;26;19928;-62
2024/04/16 10:37:50;;;;;;;;;;;26.00;35.90;;;;;;5435777;26;19929;-62
2024/04/16 10:40:28;;;;;;;;;;;26.00;35.90;;;;;;5436076;26;19937;-61
2024/04/16 10:43:00;;;;;;;;;;;26.00;35.90;;;;;;5431533;26;20007;-62
2024/04/16 10:45:30;;;;;;;;;;;25.90;35.60;;;;;;5428378;26;19936;-62
2024/04/16 10:47:58;;;;;;;;;;;26.00;35.70;;;;;;5429844;26;19928;-62
2024/04/16 10:50:25;;;;;;;;;;;26.00;35.60;;;;;;5432439;26;20377;-62
2024/04/16 10:52:52;;;;;;;;;;;26.00;35.40;;;;;;5427687;26;19998;-63
2024/04/16 10:55:20;;;;;;;;;;;26.00;35.40;;;;;;5437067;26;19934;-62
2024/04/16 10:57:47;;;;;;;;;;;26.00;35.30;;;;;;5429521;26;19941;-62
2024/04/16 11:00:15;;;;;;;;;;;26.00;35.30;;;;;;5433876;26;20269;-62
2024/04/16 11:02:42;;;;;;;;;;;26.10;35.40;;;;;;5427934;26;19982;-62
2024/04/16 11:05:09;;;;;;;;;;;26.00;35.30;;;;;;5436293;26;19935;-61
2024/04/16 11:07:37;;;;;;;;;;;26.00;35.30;;;;;;5429659;26;19936;-63
2024/04/16 11:10:05;;;;;;;;;;;26.00;35.30;;;;;;5434723;26;19929;-60
2024/04/16 11:12:33;;;;;;;;;;;26.00;35.30;;;;;;5431778;26;19964;-61
2024/04/16 11:15:03;;;;;;;;;;;26.00;35.30;;;;;;5430875;26;19937;-60
2024/04/16 11:17:30;;;;;;;;;;;26.00;35.30;;;;;;5431194;26;20274;-60
2024/04/16 11:19:57;;;;;;;;;;;26.00;35.20;;;;;;5436761;26;19937;-62
2024/04/16 11:22:24;;;;;;;;;;;26.00;35.20;;;;;;5437299;26;20366;-60
2024/04/16 11:24:51;;;;;;;;;;;26.00;35.10;;;;;;5440138;26;19937;-62
2024/04/16 11:27:22;;;;;;;;;;;26.00;35.10;;;;;;5437946;26;21805;-61
2024/04/16 11:29:50;;;;;;;;;;;26.00;35.20;;;;;;5437913;26;19940;-62
2024/04/16 11:32:17;;;;;;;;;;;26.00;35.20;;;;;;5428277;26;19952;-61
2024/04/16 11:34:45;;;;;;;;;;;25.90;35.10;;;;;;5434711;26;20019;-60
2024/04/16 11:37:13;;;;;;;;;;;25.90;35.10;;;;;;5439674;26;19952;-60
2024/04/16 11:39:42;;;;;;;;;;;25.90;35.30;;;;;;5437713;26;19944;-60
2024/04/16 11:42:10;;;;;;;;;;;25.90;35.30;;;;;;5434942;26;20039;-60
2024/04/16 11:44:37;;;;;;;;;;;25.90;35.30;;;;;;5430732;26;19928;-60
2024/04/16 11:47:05;;;;;;;;;;;25.90;35.30;;;;;;5434316;26;20366;-60
2024/04/16 11:49:33;;;;;;;;;;;25.90;35.30;;;;;;5437490;26;19936;-60
2024/04/16 11:52:04;;;;;;;;;;;26.00;35.30;;;;;;5435217;26;19928;-61
2024/04/16 11:54:34;;;;;;;;;;;25.90;35.20;;;;;;5435533;26;19935;-60
2024/04/16 11:57:03;;;;;;;;;;;25.90;35.20;;;;;;5433671;26;19928;-60
2024/04/16 11:59:34;;;;;;;;;;;26.00;35.20;;;;;;5437427;26;19928;-60
2024/04/16 12:02:01;;;;;;;;;;;25.90;35.20;;;;;;5432760;26;19997;-60
2024/04/16 12:04:29;;;;;;;;;;;25.90;35.10;;;;;;5435284;26;20374;-61
2024/04/16 12:06:56;;;;;;;;;;;25.90;35.10;;;;;;5430454;26;19940;-61
2024/04/16 12:09:23;;;;;;;;;;;25.90;35.00;;;;;;5434269;26;19940;-62
2024/04/16 12:11:51;;;;;;;;;;;25.90;35.00;;;;;;5433010;26;19948;-62
2024/04/16 12:14:19;;;;;;;;;;;26.00;35.00;;;;;;5433991;26;19960;-61
2024/04/16 12:16:50;;;;;;;;;;;26.00;35.00;;;;;;5438368;26;19944;-62
2024/04/16 12:19:17;;;;;;;;;;;26.00;35.00;;;;;;5438491;26;21405;-61
2024/04/16 12:21:45;;;;;;;;;;;26.10;35.10;;;;;;5431111;26;19928;-60
2024/04/16 12:24:12;;;;;;;;;;;26.00;35.00;;;;;;5432439;26;19928;-61
2024/04/16 12:26:39;;;;;;;;;;;26.00;35.30;;;;;;5436242;26;19936;-60
2024/04/16 12:29:06;;;;;;;;;;;26.00;35.40;;;;;;5429472;26;19928;-61
2024/04/16 12:31:33;;;;;;;;;;;26.00;35.40;;;;;;5433413;26;19996;-62
2024/04/16 12:34:01;;;;;;;;;;;26.00;35.50;;;;;;5431685;26;19964;-62
2024/04/16 12:36:30;;;;;;;;;;;26.00;35.70;;;;;;5428963;26;19997;-62
2024/04/16 12:38:57;;;;;;;;;;;26.00;35.40;;;;;;5429819;26;19940;-62
2024/04/16 12:41:24;;;;;;;;;;;26.00;35.30;;;;;;5430713;26;20017;-62
2024/04/16 12:43:52;;;;;;;;;;;26.00;35.30;;;;;;5436864;26;19933;-63
2024/04/16 12:46:19;;;;;;;;;;;25.90;35.30;;;;;;5440424;26;20278;-62
2024/04/16 12:48:46;;;;;;;;;;;25.90;35.20;;;;;;5436125;26;19948;-62
2024/04/16 12:51:13;;;;;;;;;;;25.90;35.30;;;;;;5441309;26;19929;-62
2024/04/16 12:53:40;;;;;;;;;;;25.90;35.30;;;;;;5436775;26;19929;-63
2024/04/16 12:56:11;;;;;;;;;;;25.90;35.20;;;;;;5433408;26;19937;-62
2024/04/16 12:58:41;;;;;;;;;;;25.90;35.30;;;;;;5435440;26;20619;-62
2024/04/16 13:01:09;;;;;;;;;;;25.90;35.30;;;;;;5429734;26;19936;-58
2024/04/16 13:03:36;;;;;;;;;;;25.90;35.20;;;;;;5436674;26;19929;-61
2024/04/16 13:06:06;;;;;;;;;;;26.00;35.30;;;;;;5437426;26;20006;-63
2024/04/16 13:08:33;;;;;;;;;;;26.00;35.30;;;;;;5443239;26;20009;-59
2024/04/16 13:11:00;;;;;;;;;;;26.00;35.30;;;;;;5435634;26;19935;-61
2024/04/16 13:13:27;;;;;;;;;;;26.00;35.30;;;;;;5439569;26;19934;-59
2024/04/16 13:15:59;;;;;;;;;;;26.00;35.30;;;;;;5442584;26;19993;-60
2024/04/16 13:18:26;;;;;;;;;;;26.00;35.30;;;;;;5440798;26;19929;-60
2024/04/16 13:20:54;;;;;;;;;;;25.90;35.10;;;;;;5431904;26;19935;-60
2024/04/16 13:23:21;;;;;;;;;;;25.90;35.00;;;;;;5442727;26;19952;-60
2024/04/16 13:25:48;;;;;;;;;;;25.90;35.00;;;;;;5434020;26;19936;-59
2024/04/16 13:28:15;;;;;;;;;;;25.90;34.90;;;;;;5445204;26;19936;-60
2024/04/16 13:30:42;;;;;;;;;;;25.80;34.80;;;;;;5432042;26;20022;-59
2024/04/16 13:33:09;;;;;;;;;;;25.80;34.90;;;;;;5439798;26;19940;-59
2024/04/16 13:35:37;;;;;;;;;;;25.80;35.00;;;;;;5442026;26;19940;-59
2024/04/16 13:38:04;;;;;;;;;;;25.80;35.20;;;;;;5441661;26;19936;-59
2024/04/16 13:40:31;;;;;;;;;;;25.80;35.30;;;;;;5438889;26;19929;-60
2024/04/16 13:42:57;;;;;;;;;;;25.80;35.60;;;;;;5442141;26;19929;-59
2024/04/16 13:45:25;;;;;;;;;;;25.80;35.70;;;;;;5433517;26;20399;-59
2024/04/16 13:47:52;;;;;;;;;;;25.80;35.80;;;;;;5439689;26;19932;-62
2024/04/16 13:50:20;;;;;;;;;;;25.80;35.90;;;;;;5434054;26;19949;-64
2024/04/16 13:52:47;;;;;;;;;;;25.80;36.10;;;;;;5432831;26;19998;-63
2024/04/16 13:55:15;;;;;;;;;;;25.80;36.00;;;;;;5431030;26;19929;-61
2024/04/16 13:57:43;;;;;;;;;;;25.80;36.00;;;;;;5433202;26;19932;-64
2024/04/16 14:00:11;;;;;;;;;;;25.80;36.10;;;;;;5431612;26;19929;-62
2024/04/16 14:02:38;;;;;;;;;;;25.80;35.80;;;;;;5440556;26;19997;-61
2024/04/16 14:05:05;;;;;;;;;;;25.80;36.30;;;;;;5441891;26;19928;-62
2024/04/16 14:07:32;;;;;;;;;;;25.80;36.50;;;;;;5435539;26;19943;-60
2024/04/16 14:09:59;;;;;;;;;;;25.80;36.70;;;;;;5438503;26;19936;-62
2024/04/16 14:12:26;;;;;;;;;;;25.80;36.70;;;;;;5432540;26;19928;-61
2024/04/16 14:14:53;;;;;;;;;;;25.80;36.60;;;;;;5436816;26;19939;-61
2024/04/16 14:17:20;;;;;;;;;;;25.80;36.70;;;;;;5436589;26;19936;-64
2024/04/16 14:19:47;;;;;;;;;;;25.80;36.80;;;;;;5438203;26;19948;-65